Airfield :
LOGIN :

Register | Disclaimer

   EN    FR    IT 

 










Legend :    VFR   Marginal VFR   IFR   Intensive IFR   Very Intensive IFR
Visi :
Ceiling :
>= 8 km
>= 3000ft
5 to 8 km
1000 to 3000 ft
1500m to 5 km
500 to 1000 ft
800 to 1500m
200 to 500 ft
< 800m
< 200 ft
Symbols :   Thunderstorms  Fog  Heavy snow  Heavy precipitations  Wind > 20 kt
SIGMETs :     Misc.  Thunderstorms  Icing  Turbulence  Mountain Waves  Volcanic Ashes






- Airport Elevation : 326 ft
- IATA code : LCG


LECO - A Coruna

CURRENT METAR :
  • 191830Z 07012KT 040V100 CAVOK 08/01 Q1036 NOSIG

EXPIRED METARs :
  • 191800Z 07013KT CAVOK 09/01 Q1036 NOSIG
  • 191730Z 07012KT 040V100 CAVOK 09/02 Q1036 NOSIG
  • 191700Z 08011KT 030V110 CAVOK 10/02 Q1035 NOSIG
  • 191630Z 09015KT 050V150 CAVOK 10/02 Q1035 NOSIG
  • 191600Z 08011KT 040V120 9999 FEW040 10/02 Q1035 NOSIG

TAF TAF LECO
Valid from the 19 at 15:00 until the 20 at 15:00 UTC


191400Z 1915/2015 05009KT 9999 SCT035 TX12/1915Z TN05/2006Z
TEMPO 1915/1921 05015G25KT



MET'MAP, your aeronautical weather chart ! - Copyright ORBIFLY December 2007 - Disclaimer

ORBIFLY MET'MAP TEAM :

Programming & Development : Alexandra Zaïnal
Concept & original design : Baudouin d'Aumeries
Assistance for programming : Marc-Olivier Méhu
Technical & hardware support : Manuel Goepfert

Contact : metmap@orbifly.com




SOURCES & CREDITS :

   NOAA